createdAt,value
2022-10-01T00:01:00.325Z,100388.00
2022-10-01T00:03:28.696Z,100381.31
2022-10-01T00:06:11.605Z,100398.28
2022-10-01T00:08:42.710Z,100397.44
2022-10-01T00:11:14.268Z,100394.06
2022-10-01T00:13:43.153Z,100392.44
2022-10-01T00:16:12.448Z,100380.72
2022-10-01T00:18:40.493Z,100388.00
2022-10-01T00:21:08.853Z,100388.72
2022-10-01T00:23:36.015Z,100379.87
2022-10-01T00:26:35.806Z,100389.41
2022-10-01T00:29:08.378Z,100385.84
2022-10-01T00:31:35.134Z,100385.84
2022-10-01T00:34:05.553Z,100394.66
2022-10-01T00:36:32.868Z,100370.19
2022-10-01T00:39:00.781Z,100393.81
2022-10-01T00:41:33.381Z,100397.31
2022-10-01T00:44:21.556Z,100391.94
2022-10-01T00:46:48.426Z,100375.56
2022-10-01T00:49:20.187Z,100378.03
2022-10-01T00:51:55.918Z,100369.19
2022-10-01T00:54:31.321Z,100357.34
2022-10-01T00:56:58.547Z,100352.06
2022-10-01T00:59:25.853Z,100356.50
2022-10-01T01:01:52.595Z,100356.63
2022-10-01T01:04:19.138Z,100335.50
2022-10-01T01:06:53.818Z,100327.50
2022-10-01T01:09:20.978Z,100325.13
2022-10-01T01:12:10.773Z,100332.13
2022-10-01T01:15:03.017Z,100331.03
2022-10-01T01:17:48.921Z,100341.28
2022-10-01T01:20:52.897Z,100337.25
2022-10-01T01:23:37.906Z,100346.31
2022-10-01T01:26:29.515Z,100352.97
2022-10-01T01:29:04.973Z,100351.91
2022-10-01T01:31:36.588Z,100366.88
2022-10-01T01:34:06.976Z,100365.91
2022-10-01T01:36:38.072Z,100356.09
2022-10-01T01:39:05.821Z,100333.84
2022-10-01T01:41:36.230Z,100333.75
2022-10-01T01:44:04.908Z,100340.88
2022-10-01T01:46:33.974Z,100335.59
2022-10-01T01:49:04.377Z,100306.13
2022-10-01T01:51:51.519Z,100325.66
2022-10-01T01:54:19.415Z,100323.03
2022-10-01T01:56:46.313Z,100297.97
2022-10-01T01:59:13.201Z,100308.75
2022-10-01T02:01:41.785Z,100286.72
2022-10-01T02:04:32.284Z,100318.16
2022-10-01T02:07:28.462Z,100331.19
2022-10-01T02:10:04.508Z,100342.69
2022-10-01T02:12:50.114Z,100320.84
2022-10-01T02:15:28.341Z,100342.81
2022-10-01T02:18:02.549Z,100345.44
2022-10-01T02:20:39.726Z,100338.75
2022-10-01T02:23:12.291Z,100335.87
2022-10-01T02:26:02.623Z,100345.59
2022-10-01T02:28:31.803Z,100336.00
2022-10-01T02:31:00.166Z,100297.25
2022-10-01T02:33:30.540Z,100319.25
2022-10-01T02:35:58.532Z,100306.47
2022-10-01T02:38:26.182Z,100287.00
2022-10-01T02:40:55.805Z,100283.66
2022-10-01T02:43:31.451Z,100298.94
2022-10-01T02:46:14.791Z,100293.59
2022-10-01T02:48:41.458Z,100305.84
2022-10-01T02:51:37.663Z,100304.78
2022-10-01T02:54:14.474Z,100288.06
2022-10-01T02:57:00.231Z,100294.16
2022-10-01T02:59:26.705Z,100280.38
2022-10-01T03:01:53.618Z,100272.62
2022-10-01T03:04:20.247Z,100264.66
2022-10-01T03:06:46.787Z,100270.75
2022-10-01T03:09:13.834Z,100287.50
2022-10-01T03:11:40.313Z,100294.00
2022-10-01T03:14:07.430Z,100291.37
2022-10-01T03:16:34.191Z,100276.78
2022-10-01T03:19:00.660Z,100274.69
2022-10-01T03:21:27.112Z,100273.50
2022-10-01T03:23:53.883Z,100279.56
2022-10-01T03:26:20.359Z,100270.13
2022-10-01T03:28:46.825Z,100270.56
2022-10-01T03:31:13.667Z,100268.53
2022-10-01T03:33:40.735Z,100271.00
2022-10-01T03:36:07.205Z,100249.28
2022-10-01T03:38:33.974Z,100239.50
2022-10-01T03:41:00.482Z,100241.22
2022-10-01T03:43:29.124Z,100239.25
2022-10-01T03:45:56.783Z,100252.84
2022-10-01T03:48:23.449Z,100264.09
2022-10-01T03:50:57.321Z,100284.16
2022-10-01T03:53:25.651Z,100309.38
2022-10-01T03:55:52.243Z,100359.22
2022-10-01T03:58:19.001Z,100378.22
2022-10-01T04:00:48.965Z,100346.56
2022-10-01T04:03:16.103Z,100330.53
2022-10-01T04:05:43.493Z,100342.13
2022-10-01T04:08:09.755Z,100337.19
2022-10-01T04:10:36.311Z,100320.50
2022-10-01T04:13:02.849Z,100332.06
2022-10-01T04:15:29.317Z,100311.31
2022-10-01T04:17:55.848Z,100332.44
2022-10-01T04:20:22.212Z,100337.12
2022-10-01T04:22:49.013Z,100334.47
2022-10-01T04:25:15.687Z,100368.41
2022-10-01T04:27:43.168Z,100366.03
2022-10-01T04:30:10.453Z,100378.09
2022-10-01T04:32:37.343Z,100382.25
2022-10-01T04:35:04.604Z,100377.47
2022-10-01T04:37:31.183Z,100364.69
2022-10-01T04:39:57.689Z,100370.53
2022-10-01T04:42:23.927Z,100371.50
2022-10-01T04:44:50.134Z,100377.94
2022-10-01T04:47:16.653Z,100376.00
2022-10-01T04:49:42.894Z,100397.16
2022-10-01T04:52:09.126Z,100403.22
2022-10-01T04:54:35.677Z,100405.59
2022-10-01T04:57:01.971Z,100406.22
2022-10-01T04:59:28.211Z,100409.69
2022-10-01T05:01:54.819Z,100411.00
2022-10-01T05:04:21.091Z,100370.62
2022-10-01T05:06:47.343Z,100398.91
2022-10-01T05:09:13.863Z,100391.88
2022-10-01T05:11:40.133Z,100403.53
2022-10-01T05:14:06.369Z,100406.87
2022-10-01T05:16:33.050Z,100407.47
2022-10-01T05:18:59.366Z,100405.34
2022-10-01T05:21:25.592Z,100395.47
2022-10-01T05:23:52.923Z,100402.97
2022-10-01T05:26:19.174Z,100412.41
2022-10-01T05:28:45.484Z,100373.94
2022-10-01T05:31:13.241Z,100391.41
2022-10-01T05:33:40.591Z,100395.91
2022-10-01T05:36:07.036Z,100386.09
2022-10-01T05:38:37.337Z,100380.78
2022-10-01T05:41:06.664Z,100387.62
2022-10-01T05:43:32.936Z,100374.00
2022-10-01T05:46:03.643Z,100385.38
2022-10-01T05:48:37.013Z,100395.41
2022-10-01T05:51:08.121Z,100392.03
2022-10-01T05:53:37.609Z,100369.84
2022-10-01T05:56:08.356Z,100382.06
2022-10-01T05:58:35.033Z,100394.75
2022-10-01T06:01:01.303Z,100380.38
2022-10-01T06:03:28.917Z,100358.87
2022-10-01T06:05:55.647Z,100401.22
2022-10-01T06:08:22.372Z,100410.41
2022-10-01T06:10:49.205Z,100397.13
2022-10-01T06:13:17.883Z,100346.31
2022-10-01T06:15:45.581Z,100365.28
2022-10-01T06:18:13.220Z,100375.81
2022-10-01T06:20:40.935Z,100373.03
2022-10-01T06:23:12.067Z,100369.44
2022-10-01T06:25:43.482Z,100341.16
2022-10-01T06:28:12.040Z,100323.66
2022-10-01T06:30:40.001Z,100340.50
2022-10-01T06:33:14.466Z,100349.25
2022-10-01T06:35:43.399Z,100325.09
2022-10-01T06:38:10.624Z,100320.66
2022-10-01T06:40:37.368Z,100345.28
2022-10-01T06:43:04.183Z,100322.09
2022-10-01T06:45:31.212Z,100318.94
2022-10-01T06:47:59.739Z,100334.97
2022-10-01T06:50:26.376Z,100321.38
2022-10-01T06:52:52.931Z,100318.63
2022-10-01T06:55:21.428Z,100302.00
2022-10-01T06:57:53.360Z,100306.47
2022-10-01T07:00:19.648Z,100312.03
2022-10-01T07:02:45.966Z,100317.00
2022-10-01T07:05:13.041Z,100305.06
2022-10-01T07:07:41.859Z,100305.84
2022-10-01T07:10:09.810Z,100286.09
2022-10-01T07:12:36.897Z,100299.00
2022-10-01T07:15:07.983Z,100313.28
2022-10-01T07:17:34.532Z,100317.56
2022-10-01T07:20:01.824Z,100315.97
2022-10-01T07:22:28.159Z,100314.38
2022-10-01T07:24:54.972Z,100319.59
2022-10-01T07:27:21.501Z,100312.28
2022-10-01T07:29:47.880Z,100311.63
2022-10-01T07:32:14.756Z,100312.94
2022-10-01T07:34:41.319Z,100309.62
2022-10-01T07:37:08.079Z,100303.62
2022-10-01T07:39:34.954Z,100307.47
2022-10-01T07:42:01.650Z,100277.81
2022-10-01T07:44:29.398Z,100279.69
2022-10-01T07:46:56.708Z,100304.47
2022-10-01T07:49:25.162Z,100304.81
2022-10-01T07:51:53.305Z,100307.12
2022-10-01T07:54:20.201Z,100305.97
2022-10-01T07:56:46.766Z,100310.81
2022-10-01T07:59:13.161Z,100300.66
2022-10-01T08:01:39.472Z,100308.09
2022-10-01T08:04:25.364Z,100295.09
2022-10-01T08:06:53.250Z,100317.19
2022-10-01T08:09:20.824Z,100324.81
2022-10-01T08:11:48.346Z,100329.13
2022-10-01T08:14:15.076Z,100324.87
2022-10-01T08:16:42.164Z,100324.31
2022-10-01T08:19:08.439Z,100338.41
2022-10-01T08:21:36.261Z,100328.13
2022-10-01T08:24:03.955Z,100324.94
2022-10-01T08:26:30.363Z,100346.81
2022-10-01T08:28:56.912Z,100338.09
2022-10-01T08:31:27.710Z,100335.37
2022-10-01T08:33:57.545Z,100335.56
2022-10-01T08:36:25.436Z,100333.22
2022-10-01T08:38:52.521Z,100312.59
2022-10-01T08:41:44.969Z,100310.06
2022-10-01T08:44:19.592Z,100300.25
2022-10-01T08:46:46.344Z,100290.25
2022-10-01T08:49:17.215Z,100266.28
2022-10-01T08:52:01.407Z,100295.63
2022-10-01T08:54:42.816Z,100298.03
2022-10-01T08:57:14.791Z,100304.75
2022-10-01T09:00:11.984Z,100276.94
2022-10-01T09:02:42.769Z,100276.94
2022-10-01T09:05:31.101Z,100250.00
2022-10-01T09:08:05.282Z,100287.09
2022-10-01T09:10:40.331Z,100285.31
2022-10-01T09:13:25.298Z,100284.72
2022-10-01T09:16:01.648Z,100278.53
2022-10-01T09:18:40.597Z,100278.75
2022-10-01T09:21:20.901Z,100285.44
2022-10-01T09:23:57.372Z,100290.12
2022-10-01T09:26:25.814Z,100278.94
2022-10-01T09:28:52.595Z,100257.09
2022-10-01T09:31:21.406Z,100270.72
2022-10-01T09:33:56.539Z,100252.75
2022-10-01T09:36:37.811Z,100275.34
2022-10-01T09:39:13.435Z,100274.22
2022-10-01T09:41:39.811Z,100262.38
2022-10-01T09:44:11.067Z,100263.13
2022-10-01T09:46:37.302Z,100266.12
2022-10-01T09:49:10.382Z,100263.75
2022-10-01T09:51:43.409Z,100260.16
2022-10-01T09:54:31.996Z,100256.72
2022-10-01T09:57:01.407Z,100248.78
2022-10-01T09:59:34.922Z,100250.87
2022-10-01T10:02:04.534Z,100233.25
2022-10-01T10:04:33.696Z,100232.44
2022-10-01T10:07:03.048Z,100213.87
2022-10-01T10:09:33.630Z,100218.16
2022-10-01T10:12:11.745Z,100237.69
2022-10-01T10:14:47.004Z,100228.75
2022-10-01T10:17:16.728Z,100238.03
2022-10-01T10:19:51.738Z,100229.91
2022-10-01T10:22:26.447Z,100225.97
2022-10-01T10:24:53.811Z,100218.28
2022-10-01T10:27:29.201Z,100221.25
2022-10-01T10:30:10.399Z,100211.13
2022-10-01T10:32:37.053Z,100213.25
2022-10-01T10:35:10.032Z,100207.06
2022-10-01T10:37:37.591Z,100222.63
2022-10-01T10:40:06.221Z,100214.84
2022-10-01T10:42:33.330Z,100207.25
2022-10-01T10:45:03.502Z,100209.69
2022-10-01T10:47:31.542Z,100213.72
2022-10-01T10:50:00.746Z,100202.44
2022-10-01T10:52:30.081Z,100201.75
2022-10-01T10:54:58.601Z,100208.31
2022-10-01T10:57:31.639Z,100201.91
2022-10-01T11:00:00.321Z,100200.75
2022-10-01T11:02:31.543Z,100198.78
2022-10-01T11:05:01.147Z,100185.00
2022-10-01T11:07:27.585Z,100187.84
2022-10-01T11:10:19.886Z,100172.28
2022-10-01T11:13:00.046Z,100154.75
2022-10-01T11:15:42.172Z,100180.81
2022-10-01T11:18:37.595Z,100178.03
2022-10-01T11:21:25.817Z,100172.69
2022-10-01T11:24:21.183Z,100152.44
2022-10-01T11:26:56.595Z,100162.75
2022-10-01T11:29:38.082Z,100143.16
2022-10-01T11:32:33.496Z,100127.91
2022-10-01T11:35:15.192Z,100128.25
2022-10-01T11:38:06.767Z,100121.59
2022-10-01T11:40:39.411Z,100119.94
2022-10-01T11:43:20.714Z,100132.06
2022-10-01T11:45:50.895Z,100113.31
2022-10-01T11:48:26.254Z,100112.47
2022-10-01T11:50:55.177Z,100108.66
2022-10-01T11:53:33.383Z,100106.34
2022-10-01T11:56:21.498Z,100100.38
2022-10-01T11:59:01.971Z,100079.00
2022-10-01T12:01:46.780Z,100094.91
2022-10-01T12:04:32.444Z,100098.19
2022-10-01T12:07:06.117Z,100098.56
2022-10-01T12:09:48.407Z,100098.00
2022-10-01T12:12:22.433Z,100083.03
2022-10-01T12:15:23.041Z,100087.53
2022-10-01T12:17:53.450Z,100053.91
2022-10-01T12:20:40.410Z,100072.81
2022-10-01T12:23:09.137Z,100066.16
2022-10-01T12:25:47.248Z,100061.00
2022-10-01T12:28:19.798Z,100061.66
2022-10-01T12:30:54.221Z,100064.53
2022-10-01T12:33:31.237Z,100064.50
2022-10-01T12:36:31.735Z,100069.31
2022-10-01T12:39:07.583Z,100075.47
2022-10-01T12:41:38.750Z,100081.47
2022-10-01T12:44:33.273Z,100071.69
2022-10-01T12:47:12.539Z,100065.75
2022-10-01T12:49:47.653Z,100063.09
2022-10-01T12:52:48.106Z,100046.66
2022-10-01T12:55:34.656Z,100051.31
2022-10-01T12:58:37.027Z,100044.97
2022-10-01T13:01:09.443Z,100054.94
2022-10-01T13:04:24.691Z,100049.63
2022-10-01T13:07:10.760Z,100046.78
2022-10-01T13:10:12.320Z,100039.31
2022-10-01T13:12:41.390Z,100034.34
2022-10-01T13:15:17.333Z,100029.56
2022-10-01T13:17:49.427Z,100020.22
2022-10-01T13:20:41.050Z,100025.53
2022-10-01T13:23:27.084Z,100021.06
2022-10-01T13:26:17.433Z,100012.91
2022-10-01T13:28:57.812Z,100009.78
2022-10-01T13:31:39.949Z,99996.19
2022-10-01T13:34:35.247Z,100007.72
2022-10-01T13:37:32.611Z,100009.87
2022-10-01T13:39:59.810Z,99997.75
2022-10-01T13:42:46.138Z,100001.69
2022-10-01T13:45:24.955Z,99987.72
2022-10-01T13:47:51.521Z,99972.44
2022-10-01T13:50:24.148Z,99979.72
2022-10-01T13:52:51.581Z,99973.75
2022-10-01T13:55:27.104Z,99964.66
2022-10-01T13:58:05.854Z,99958.22
2022-10-01T14:00:32.864Z,99929.09
2022-10-01T14:03:06.184Z,99940.66
2022-10-01T14:05:36.679Z,99929.44
2022-10-01T14:08:11.814Z,99938.53
2022-10-01T14:11:08.037Z,99923.44
2022-10-01T14:14:00.887Z,99895.66
2022-10-01T14:16:28.006Z,99907.06
2022-10-01T14:18:54.527Z,99902.13
2022-10-01T14:21:25.693Z,99915.72
2022-10-01T14:24:14.544Z,99905.44
2022-10-01T14:27:10.584Z,99904.09
2022-10-01T14:30:09.582Z,99899.66
2022-10-01T14:32:58.751Z,99898.69
2022-10-01T14:35:34.184Z,99903.63
2022-10-01T14:38:02.045Z,99890.72
2022-10-01T14:40:40.064Z,99885.09
2022-10-01T14:43:27.127Z,99880.28
2022-10-01T14:46:04.268Z,99889.56
2022-10-01T14:48:32.901Z,99871.22
2022-10-01T14:51:04.436Z,99883.94
2022-10-01T14:53:35.157Z,99886.16
2022-10-01T14:56:12.965Z,99888.31
2022-10-01T14:58:44.874Z,99892.63
2022-10-01T15:01:19.011Z,99875.91
2022-10-01T15:03:46.104Z,99857.41
2022-10-01T15:06:16.981Z,99872.47
2022-10-01T15:08:45.225Z,99866.69
2022-10-01T15:11:42.116Z,99852.44
2022-10-01T15:14:32.047Z,99851.13
2022-10-01T15:17:07.102Z,99849.66
2022-10-01T15:19:37.243Z,99840.87
2022-10-01T15:22:03.809Z,99849.16
2022-10-01T15:24:44.894Z,99844.84
2022-10-01T15:27:14.473Z,99834.91
2022-10-01T15:29:42.730Z,99841.34
2022-10-01T15:32:10.087Z,99842.53
2022-10-01T15:34:36.987Z,99835.91
2022-10-01T15:37:03.820Z,99829.12
2022-10-01T15:39:38.850Z,99838.91
2022-10-01T15:42:21.507Z,99833.44
2022-10-01T15:44:49.934Z,99814.75
2022-10-01T15:47:33.915Z,99821.38
2022-10-01T15:50:12.257Z,99808.13
2022-10-01T15:52:51.420Z,99805.84
2022-10-01T15:55:17.611Z,99795.91
2022-10-01T15:57:45.085Z,99790.63
2022-10-01T16:00:28.853Z,99802.66
2022-10-01T16:02:57.190Z,99793.69
2022-10-01T16:05:26.498Z,99797.47
2022-10-01T16:07:58.311Z,99795.28
2022-10-01T16:10:44.803Z,99789.13
2022-10-01T16:13:38.604Z,99788.97
2022-10-01T16:16:11.056Z,99775.53
2022-10-01T16:18:40.182Z,99759.25
2022-10-01T16:21:11.496Z,99750.00
2022-10-01T16:23:42.506Z,99758.19
2022-10-01T16:26:27.510Z,99751.38
2022-10-01T16:29:04.471Z,99750.31
2022-10-01T16:31:31.388Z,99738.50
2022-10-01T16:33:58.094Z,99741.78
2022-10-01T16:36:24.396Z,99748.38
2022-10-01T16:38:51.327Z,99732.78
2022-10-01T16:41:26.107Z,99733.16
2022-10-01T16:43:54.839Z,99737.59
2022-10-01T16:46:21.146Z,99732.97
2022-10-01T16:48:51.438Z,99731.16
2022-10-01T16:51:19.248Z,99715.12
2022-10-01T16:53:46.037Z,99738.59
2022-10-01T16:56:12.391Z,99740.44
2022-10-01T16:58:39.276Z,99727.16
2022-10-01T17:01:08.432Z,99736.44
2022-10-01T17:03:35.972Z,99726.81
2022-10-01T17:06:03.237Z,99736.75
2022-10-01T17:08:29.516Z,99732.44
2022-10-01T17:10:59.160Z,99719.50
2022-10-01T17:13:26.982Z,99738.22
2022-10-01T17:15:53.774Z,99737.38
2022-10-01T17:18:20.520Z,99741.31
2022-10-01T17:20:47.352Z,99737.69
2022-10-01T17:23:15.440Z,99732.72
2022-10-01T17:25:42.406Z,99731.91
2022-10-01T17:28:13.723Z,99718.13
2022-10-01T17:30:44.410Z,99712.50
2022-10-01T17:33:12.529Z,99732.81
2022-10-01T17:35:43.604Z,99737.94
2022-10-01T17:38:11.283Z,99728.38
2022-10-01T17:40:42.450Z,99729.88
2022-10-01T17:43:13.003Z,99725.88
2022-10-01T17:45:39.681Z,99732.50
2022-10-01T17:48:06.447Z,99737.97
2022-10-01T17:50:32.979Z,99743.78
2022-10-01T17:53:00.715Z,99741.00
2022-10-01T17:55:27.752Z,99737.53
2022-10-01T17:57:53.990Z,99740.19
2022-10-01T18:00:20.550Z,99730.91
2022-10-01T18:02:47.157Z,99741.63
2022-10-01T18:05:14.894Z,99738.31
2022-10-01T18:07:41.994Z,99740.84
2022-10-01T18:10:10.863Z,99724.13
2022-10-01T18:12:37.109Z,99739.41
2022-10-01T18:15:03.474Z,99734.47
2022-10-01T18:17:32.279Z,99715.19
2022-10-01T18:19:58.539Z,99719.69
2022-10-01T18:22:24.868Z,99715.22
2022-10-01T18:24:51.515Z,99703.31
2022-10-01T18:27:17.843Z,99699.19
2022-10-01T18:29:44.099Z,99702.03
2022-10-01T18:32:19.540Z,99692.44
2022-10-01T18:35:00.121Z,99692.34
2022-10-01T18:37:40.132Z,99665.87
2022-10-01T18:40:16.736Z,99688.72
2022-10-01T18:42:49.333Z,99693.56
2022-10-01T18:45:52.140Z,99702.69
2022-10-01T18:48:37.279Z,99696.78
2022-10-01T18:51:22.713Z,99681.41
2022-10-01T18:54:07.995Z,99693.63
2022-10-01T18:56:36.518Z,99689.19
2022-10-01T18:59:15.287Z,99669.66
2022-10-01T19:02:11.147Z,99688.34
2022-10-01T19:05:01.481Z,99681.09
2022-10-01T19:07:39.570Z,99686.41
2022-10-01T19:10:16.591Z,99687.75
2022-10-01T19:13:38.029Z,99681.94
2022-10-01T19:16:23.292Z,99679.63
2022-10-01T19:19:12.529Z,99693.97
2022-10-01T19:21:54.387Z,99703.06
2022-10-01T19:24:23.635Z,99702.44
2022-10-01T19:26:58.039Z,99695.16
2022-10-01T19:29:43.418Z,99698.47
2022-10-01T19:32:26.010Z,99703.28
2022-10-01T19:34:56.807Z,99694.19
2022-10-01T19:37:29.946Z,99683.13
2022-10-01T19:40:15.270Z,99690.22
2022-10-01T19:42:45.271Z,99704.44
2022-10-01T19:45:39.319Z,99690.56
2022-10-01T19:48:41.303Z,99686.28
2022-10-01T19:51:12.502Z,99695.50
2022-10-01T19:53:46.089Z,99685.25
2022-10-01T19:56:32.536Z,99678.78
2022-10-01T19:59:01.802Z,99688.25
2022-10-01T20:01:39.079Z,99692.53
2022-10-01T20:04:14.718Z,99705.59
2022-10-01T20:06:44.498Z,99690.53
2022-10-01T20:09:25.495Z,99705.59
2022-10-01T20:11:55.048Z,99704.78
2022-10-01T20:15:10.362Z,99700.00
2022-10-01T20:18:05.458Z,99694.84
2022-10-01T20:20:41.258Z,99699.50
2022-10-01T20:23:26.305Z,99714.69
2022-10-01T20:26:15.890Z,99698.66
2022-10-01T20:29:15.311Z,99696.50
2022-10-01T20:32:06.769Z,99694.19
2022-10-01T20:34:52.197Z,99700.75
2022-10-01T20:37:50.182Z,99700.09
2022-10-01T20:40:30.760Z,99706.34
2022-10-01T20:43:05.759Z,99700.59
2022-10-01T20:45:35.329Z,99716.75
2022-10-01T20:48:12.489Z,99711.94
2022-10-01T20:50:44.623Z,99708.94
2022-10-01T20:53:38.723Z,99714.50
2022-10-01T20:56:12.931Z,99701.53
2022-10-01T20:58:53.009Z,99710.66
2022-10-01T21:01:22.106Z,99718.37
2022-10-01T21:04:05.257Z,99721.16
2022-10-01T21:06:41.375Z,99732.22
2022-10-01T21:09:16.906Z,99739.63
2022-10-01T21:11:52.409Z,99746.16
2022-10-01T21:14:27.895Z,99738.38
2022-10-01T21:17:30.834Z,99749.91
2022-10-01T21:20:12.377Z,99744.72
2022-10-01T21:22:45.808Z,99740.88
2022-10-01T21:25:37.123Z,99736.53
2022-10-01T21:28:14.708Z,99749.25
2022-10-01T21:30:52.991Z,99738.47
2022-10-01T21:33:25.236Z,99737.50
2022-10-01T21:36:35.514Z,99737.28
2022-10-01T21:39:13.947Z,99742.06
2022-10-01T21:41:52.077Z,99754.56
2022-10-01T21:44:23.711Z,99739.25
2022-10-01T21:46:59.427Z,99753.66
2022-10-01T21:49:28.642Z,99766.34
2022-10-01T21:51:55.240Z,99758.84
2022-10-01T21:54:36.828Z,99758.47
2022-10-01T21:57:25.586Z,99759.31
2022-10-01T22:00:00.778Z,99753.56
2022-10-01T22:03:05.031Z,99753.03
2022-10-01T22:05:50.268Z,99748.81
2022-10-01T22:08:34.959Z,99740.94
2022-10-01T22:11:04.612Z,99753.75
2022-10-01T22:13:38.660Z,99744.75
2022-10-01T22:16:14.346Z,99758.97
2022-10-01T22:18:45.408Z,99759.88
2022-10-01T22:21:13.962Z,99760.84
2022-10-01T22:23:46.503Z,99759.63
2022-10-01T22:26:16.614Z,99763.28
2022-10-01T22:28:45.008Z,99749.56
2022-10-01T22:31:15.769Z,99738.34
2022-10-01T22:33:47.684Z,99755.94
2022-10-01T22:36:19.888Z,99761.78
2022-10-01T22:38:54.890Z,99764.03
2022-10-01T22:41:21.178Z,99771.81
2022-10-01T22:43:47.758Z,99793.00
2022-10-01T22:46:36.093Z,99792.03
2022-10-01T22:49:19.066Z,99799.09
2022-10-01T22:51:57.427Z,99792.31
2022-10-01T22:54:42.241Z,99797.88
2022-10-01T22:57:21.432Z,99806.59
2022-10-01T22:59:50.804Z,99795.91
2022-10-01T23:02:35.657Z,99796.91
2022-10-01T23:05:36.211Z,99797.88
2022-10-01T23:08:27.146Z,99814.50
2022-10-01T23:11:23.863Z,99817.69
2022-10-01T23:14:14.214Z,99821.28
2022-10-01T23:16:50.633Z,99831.00
2022-10-01T23:19:20.867Z,99828.66
2022-10-01T23:22:09.122Z,99825.03
2022-10-01T23:24:57.156Z,99800.34
2022-10-01T23:28:02.109Z,99815.34
2022-10-01T23:30:40.466Z,99822.84
2022-10-01T23:33:44.980Z,99828.34
2022-10-01T23:36:32.934Z,99841.09
2022-10-01T23:39:36.956Z,99860.34
2022-10-01T23:42:34.832Z,99864.91
2022-10-01T23:45:20.300Z,99863.94
2022-10-01T23:47:56.735Z,99870.87
2022-10-01T23:50:31.715Z,99867.53
2022-10-01T23:53:04.024Z,99856.84
2022-10-01T23:55:57.925Z,99883.97
2022-10-01T23:58:25.173Z,99865.66
